Time;durP1;ratioP1;P1;durP2;ratioP2;P2;SDS_P1;SDS_P2;PMS_P1;PMS_P2;Temp;Humidity;BMP_temperature;BMP_pressure;BME280_temperature;BME280_humidity;BME280_pressure;Samples;Min_cycle;Max_cycle;Signal;HPM_P1;HPM_P2
2022/01/01 00:01:54;;;;;;;56.07;36.10;;;;;;;;;;5063351;28;21409;-51
2022/01/01 00:04:20;;;;;;;43.00;31.00;;;;;;;;;;5089985;28;20476;-50
2022/01/01 00:06:53;;;;;;;49.73;33.87;;;;;;;;;;5074071;28;20455;-51
2022/01/01 00:09:19;;;;;;;48.40;34.83;;;;;;;;;;5074630;28;20501;-50
2022/01/01 00:11:45;;;;;;;54.70;35.73;;;;;;;;;;5081113;28;20432;-50
2022/01/01 00:14:12;;;;;;;45.90;31.23;;;;;;;;;;5070046;28;20435;-51
2022/01/01 00:16:39;;;;;;;32.47;22.70;;;;;;;;;;5039791;28;20536;-49
2022/01/01 00:19:06;;;;;;;33.60;22.13;;;;;;;;;;5057983;28;20439;-50
2022/01/01 00:21:32;;;;;;;17.10;13.37;;;;;;;;;;5047410;28;20507;-50
2022/01/01 00:24:11;;;;;;;15.00;8.03;;;;;;;;;;5048700;28;20528;-50
2022/01/01 00:26:54;;;;;;;10.93;7.57;;;;;;;;;;5075543;28;20443;-50
2022/01/01 00:29:34;;;;;;;15.13;10.93;;;;;;;;;;5051797;28;20536;-51
2022/01/01 00:32:11;;;;;;;29.13;18.50;;;;;;;;;;5076799;28;20441;-50
2022/01/01 00:34:42;;;;;;;28.33;19.30;;;;;;;;;;5033132;28;20510;-50
2022/01/01 00:37:08;;;;;;;29.53;21.30;;;;;;;;;;5077613;28;21302;-50
2022/01/01 00:39:34;;;;;;;28.33;19.63;;;;;;;;;;5055964;28;20440;-48
2022/01/01 00:42:00;;;;;;;29.93;20.50;;;;;;;;;;5077923;28;20480;-50
2022/01/01 00:44:26;;;;;;;23.17;17.03;;;;;;;;;;5055488;28;20509;-49
2022/01/01 00:46:52;;;;;;;31.77;22.27;;;;;;;;;;5075273;28;20427;-48
2022/01/01 00:49:26;;;;;;;19.97;15.60;;;;;;;;;;5054861;28;20468;-50
2022/01/01 00:51:53;;;;;;;27.33;15.73;;;;;;;;;;5062306;28;20443;-50
2022/01/01 00:54:19;;;;;;;20.13;14.63;;;;;;;;;;5049671;28;20455;-50
2022/01/01 00:56:47;;;;;;;30.70;18.87;;;;;;;;;;5076556;28;20957;-50
2022/01/01 00:59:17;;;;;;;28.17;19.23;;;;;;;;;;5052657;28;20466;-51
2022/01/01 01:01:44;;;;;;;24.07;16.17;;;;;;;;;;5074128;28;20463;-51
2022/01/01 01:04:10;;;;;;;23.50;17.30;;;;;;;;;;5049566;28;20464;-50
2022/01/01 01:06:39;;;;;;;28.10;18.70;;;;;;;;;;5077194;28;20852;-51
2022/01/01 01:09:05;;;;;;;19.20;15.63;;;;;;;;;;5078471;28;20512;-49
2022/01/01 01:11:41;;;;;;;25.03;17.20;;;;;;;;;;5073870;28;20425;-51
2022/01/01 01:14:27;;;;;;;22.47;14.13;;;;;;;;;;5051112;28;20615;-50
2022/01/01 01:17:01;;;;;;;18.37;13.53;;;;;;;;;;5076224;28;20461;-51
2022/01/01 01:19:27;;;;;;;16.93;12.73;;;;;;;;;;5058481;28;20508;-49
2022/01/01 01:21:53;;;;;;;16.43;11.13;;;;;;;;;;5083515;28;20478;-49
2022/01/01 01:24:53;;;;;;;14.00;9.50;;;;;;;;;;5091018;28;21363;-50
2022/01/01 01:27:20;;;;;;;13.17;8.17;;;;;;;;;;5080367;28;21332;-48
2022/01/01 01:29:49;;;;;;;13.90;8.80;;;;;;;;;;5061192;28;22373;-50
2022/01/01 01:32:29;;;;;;;12.00;9.63;;;;;;;;;;5082399;28;20451;-50
2022/01/01 01:35:03;;;;;;;11.13;8.70;;;;;;;;;;5063690;28;20947;-50
2022/01/01 01:37:48;;;;;;;16.27;11.27;;;;;;;;;;5080105;28;20516;-50
2022/01/01 01:40:37;;;;;;;15.30;10.83;;;;;;;;;;5068699;28;20435;-50
2022/01/01 01:43:21;;;;;;;16.33;12.73;;;;;;;;;;5079691;28;20615;-49
2022/01/01 01:45:51;;;;;;;15.43;11.60;;;;;;;;;;5063680;28;20976;-49
2022/01/01 01:48:17;;;;;;;17.00;12.33;;;;;;;;;;5080486;28;20488;-54
2022/01/01 01:50:43;;;;;;;19.67;13.30;;;;;;;;;;5055965;28;20875;-50
2022/01/01 01:53:09;;;;;;;17.43;12.57;;;;;;;;;;5083388;28;20447;-48
2022/01/01 01:55:35;;;;;;;18.17;12.90;;;;;;;;;;5041452;28;20522;-50
2022/01/01 01:58:01;;;;;;;18.50;13.20;;;;;;;;;;5054963;28;20453;-50
2022/01/01 02:00:57;;;;;;;23.20;13.93;;;;;;;;;;5054543;28;21255;-49
2022/01/01 02:03:19;;;;;;;19.20;14.00;;;;;;;;;;5080778;28;20447;-49
2022/01/01 02:05:46;;;;;;;20.77;14.20;;;;;;;;;;5064637;28;20446;-51
2022/01/01 02:08:12;;;;;;;19.73;14.23;;;;;;;;;;5083110;28;20442;-50
2022/01/01 02:10:38;;;;;;;19.13;13.83;;;;;;;;;;5060772;28;20443;-48
2022/01/01 02:13:11;;;;;;;21.23;14.30;;;;;;;;;;5082272;28;20449;-53
2022/01/01 02:16:30;;;;;;;22.23;14.70;;;;;;;;;;5060101;28;20531;-49
2022/01/01 02:18:26;;;;;;;26.10;16.97;;;;;;;;;;5074584;28;20444;-49
2022/01/01 02:20:52;;;;;;;21.47;16.00;;;;;;;;;;5038750;28;20490;-48
2022/01/01 02:23:23;;;;;;;26.50;16.63;;;;;;;;;;5064008;28;20526;-48
2022/01/01 02:25:50;;;;;;;37.97;18.83;;;;;;;;;;5058254;28;20494;-50
2022/01/01 02:28:20;;;;;;;26.90;16.00;;;;;;;;;;5081707;28;21211;-50
2022/01/01 02:31:10;;;;;;;31.57;18.93;;;;;;;;;;5033624;28;20524;-50
2022/01/01 02:33:53;;;;;;;32.97;22.87;;;;;;;;;;5039283;28;20446;-50
2022/01/01 02:36:53;;;;;;;26.57;20.90;;;;;;;;;;5074007;28;20460;-51
2022/01/01 02:39:24;;;;;;;31.77;21.27;;;;;;;;;;5083314;28;20636;-50
2022/01/01 02:41:52;;;;;;;38.57;26.37;;;;;;;;;;5091419;28;20586;-50
2022/01/01 02:44:21;;;;;;;34.60;26.67;;;;;;;;;;5092528;28;20570;-49
2022/01/01 02:47:17;;;;;;;42.80;28.20;;;;;;;;;;5069949;28;20683;-50
2022/01/01 02:49:45;;;;;;;37.40;24.30;;;;;;;;;;5081169;28;20964;-50
2022/01/01 02:52:11;;;;;;;36.47;23.67;;;;;;;;;;5071467;28;20457;-49
2022/01/01 02:54:37;;;;;;;35.80;24.30;;;;;;;;;;5093033;28;20489;-51
2022/01/01 02:57:06;;;;;;;28.67;16.00;;;;;;;;;;5082339;28;20552;-50
2022/01/01 02:59:32;;;;;;;29.60;15.77;;;;;;;;;;5094526;28;20900;-49
2022/01/01 03:02:38;;;;;;;25.23;15.30;;;;;;;;;;5086888;28;20529;-51
2022/01/01 03:05:11;;;;;;;23.20;17.23;;;;;;;;;;5092629;28;20690;-49
2022/01/01 03:07:38;;;;;;;32.93;19.03;;;;;;;;;;5080170;28;21340;-48
2022/01/01 03:10:05;;;;;;;30.00;20.43;;;;;;;;;;5085679;28;20746;-50
2022/01/01 03:12:43;;;;;;;21.60;15.10;;;;;;;;;;5063192;28;20771;-50
2022/01/01 03:15:14;;;;;;;15.60;10.33;;;;;;;;;;5092170;28;20443;-50
2022/01/01 03:17:40;;;;;;;19.50;12.27;;;;;;;;;;5093474;28;20909;-50
2022/01/01 03:20:25;;;;;;;24.70;15.10;;;;;;;;;;5058555;28;20471;-50
2022/01/01 03:23:05;;;;;;;18.13;12.17;;;;;;;;;;5060069;28;20490;-50
2022/01/01 03:25:36;;;;;;;15.57;10.17;;;;;;;;;;5087751;28;20468;-50
2022/01/01 03:28:02;;;;;;;13.30;11.10;;;;;;;;;;5062376;28;20458;-50
2022/01/01 03:30:28;;;;;;;16.50;11.70;;;;;;;;;;5078344;28;20432;-50
2022/01/01 03:33:00;;;;;;;21.10;11.73;;;;;;;;;;5066825;28;20493;-49
2022/01/01 03:35:28;;;;;;;19.80;10.70;;;;;;;;;;5076191;28;20449;-50
2022/01/01 03:37:54;;;;;;;18.13;12.47;;;;;;;;;;5060268;28;20690;-49
2022/01/01 03:40:20;;;;;;;17.23;12.57;;;;;;;;;;5089645;28;20485;-49
2022/01/01 03:42:46;;;;;;;16.63;11.20;;;;;;;;;;5064748;28;20844;-51
2022/01/01 03:45:12;;;;;;;16.10;10.33;;;;;;;;;;5074820;28;20459;-50
2022/01/01 03:47:39;;;;;;;17.60;10.43;;;;;;;;;;5090062;28;20458;-50
2022/01/01 03:50:06;;;;;;;14.27;8.80;;;;;;;;;;5082050;28;20499;-50
2022/01/01 03:52:34;;;;;;;22.27;11.40;;;;;;;;;;5075134;28;20527;-50
2022/01/01 03:55:01;;;;;;;15.60;10.60;;;;;;;;;;5070854;28;20432;-50
2022/01/01 03:57:39;;;;;;;13.40;8.80;;;;;;;;;;5062144;28;21067;-49
2022/01/01 04:00:08;;;;;;;16.80;9.27;;;;;;;;;;5080479;28;20881;-50
2022/01/01 04:02:37;;;;;;;10.63;7.27;;;;;;;;;;5062789;28;20476;-50
2022/01/01 04:05:07;;;;;;;12.40;8.00;;;;;;;;;;5075381;28;20812;-54
2022/01/01 04:07:33;;;;;;;15.67;8.67;;;;;;;;;;5073437;28;20530;-50
2022/01/01 04:10:00;;;;;;;11.37;6.60;;;;;;;;;;5090595;28;20432;-49
2022/01/01 04:12:46;;;;;;;10.80;7.90;;;;;;;;;;5059571;28;24760;-50
2022/01/01 04:15:15;;;;;;;11.90;6.57;;;;;;;;;;5075722;28;20492;-50
2022/01/01 04:17:59;;;;;;;13.50;7.80;;;;;;;;;;5090249;28;20476;-50
2022/01/01 04:20:35;;;;;;;10.13;7.33;;;;;;;;;;5065655;28;20452;-50
2022/01/01 04:23:17;;;;;;;8.73;6.10;;;;;;;;;;5069996;28;20480;-50
2022/01/01 04:25:47;;;;;;;9.47;6.20;;;;;;;;;;5082804;28;20490;-50
2022/01/01 04:28:19;;;;;;;8.50;6.30;;;;;;;;;;5074172;28;20809;-50
2022/01/01 04:30:45;;;;;;;8.23;6.43;;;;;;;;;;5093860;28;20428;-49
2022/01/01 04:33:20;;;;;;;9.93;6.67;;;;;;;;;;5071655;28;20506;-50
2022/01/01 04:35:54;;;;;;;10.70;6.03;;;;;;;;;;5087596;28;20941;-50
2022/01/01 04:38:41;;;;;;;9.47;6.40;;;;;;;;;;5061591;28;21095;-50
2022/01/01 04:41:12;;;;;;;9.23;6.50;;;;;;;;;;5094107;28;20463;-50
2022/01/01 04:44:01;;;;;;;9.90;6.47;;;;;;;;;;5054428;28;20473;-51
2022/01/01 04:46:29;;;;;;;9.40;6.73;;;;;;;;;;5083803;28;20468;-50
2022/01/01 04:49:00;;;;;;;7.43;6.10;;;;;;;;;;5077077;28;20595;-50
2022/01/01 04:51:27;;;;;;;8.67;6.03;;;;;;;;;;5070733;28;20481;-50
2022/01/01 04:53:59;;;;;;;10.80;7.27;;;;;;;;;;5080824;28;20592;-51
2022/01/01 04:56:29;;;;;;;11.00;6.50;;;;;;;;;;5092205;28;20440;-50
2022/01/01 04:58:55;;;;;;;9.30;6.23;;;;;;;;;;5081042;28;20633;-49
2022/01/01 05:01:21;;;;;;;8.83;5.57;;;;;;;;;;5084077;28;20468;-49
2022/01/01 05:03:47;;;;;;;10.50;6.10;;;;;;;;;;5069733;28;20794;-49
2022/01/01 05:06:13;;;;;;;10.50;6.10;;;;;;;;;;5065318;28;20440;-49
2022/01/01 05:08:39;;;;;;;9.37;6.83;;;;;;;;;;5092251;28;20802;-50
2022/01/01 05:11:06;;;;;;;9.10;6.60;;;;;;;;;;5094947;28;20436;-50
2022/01/01 05:13:32;;;;;;;8.07;6.37;;;;;;;;;;5085177;28;20435;-51
2022/01/01 05:15:59;;;;;;;7.17;5.80;;;;;;;;;;5061525;28;20447;-50
2022/01/01 05:18:38;;;;;;;7.27;5.80;;;;;;;;;;5075369;28;21072;-50
2022/01/01 05:21:19;;;;;;;7.37;5.77;;;;;;;;;;5074115;28;20442;-50
2022/01/01 05:24:12;;;;;;;15.63;5.70;;;;;;;;;;5081306;28;20436;-50
2022/01/01 05:26:47;;;;;;;7.50;5.10;;;;;;;;;;5097501;28;20427;-50
2022/01/01 05:29:13;;;;;;;8.77;4.90;;;;;;;;;;5075712;28;20444;-50
2022/01/01 05:31:39;;;;;;;6.33;4.40;;;;;;;;;;5095458;28;20429;-49
2022/01/01 05:34:17;;;;;;;6.63;4.50;;;;;;;;;;5073062;28;20464;-50
2022/01/01 05:36:43;;;;;;;6.43;4.87;;;;;;;;;;5080554;28;20435;-49
2022/01/01 05:39:09;;;;;;;8.23;5.33;;;;;;;;;;5069605;28;20429;-50
2022/01/01 05:41:35;;;;;;;7.00;4.33;;;;;;;;;;5089549;28;20570;-50
2022/01/01 05:44:30;;;;;;;5.13;4.03;;;;;;;;;;5083477;28;20455;-51
2022/01/01 05:47:00;;;;;;;9.57;5.53;;;;;;;;;;5089056;28;20428;-50
2022/01/01 05:49:27;;;;;;;5.93;4.50;;;;;;;;;;5071266;28;20440;-50
2022/01/01 05:51:53;;;;;;;6.73;4.67;;;;;;;;;;5074159;28;20428;-49
2022/01/01 05:54:19;;;;;;;6.30;5.10;;;;;;;;;;5084826;28;20439;-50
2022/01/01 05:56:46;;;;;;;7.10;3.97;;;;;;;;;;5087792;28;20428;-50
2022/01/01 05:59:28;;;;;;;4.60;4.13;;;;;;;;;;5078808;28;20443;-50
2022/01/01 06:02:00;;;;;;;5.20;3.77;;;;;;;;;;5089082;28;20484;-50
2022/01/01 06:04:26;;;;;;;6.73;4.37;;;;;;;;;;5070060;28;20428;-50
2022/01/01 06:06:52;;;;;;;5.47;4.20;;;;;;;;;;5089389;28;20480;-50
2022/01/01 06:09:30;;;;;;;6.30;4.00;;;;;;;;;;5052573;28;20781;-50
2022/01/01 06:11:57;;;;;;;5.57;4.10;;;;;;;;;;5078977;28;20471;-50
2022/01/01 06:14:29;;;;;;;5.17;3.77;;;;;;;;;;5087489;28;20469;-50
2022/01/01 06:16:55;;;;;;;5.87;3.97;;;;;;;;;;5098487;28;20543;-49
2022/01/01 06:19:27;;;;;;;4.60;3.40;;;;;;;;;;5054394;28;20497;-49
2022/01/01 06:21:53;;;;;;;6.27;4.70;;;;;;;;;;5090891;28;20479;-49
2022/01/01 06:24:19;;;;;;;5.83;4.10;;;;;;;;;;5082698;28;20435;-49
2022/01/01 06:26:49;;;;;;;5.10;3.90;;;;;;;;;;5084481;28;20599;-50
2022/01/01 06:29:27;;;;;;;4.97;3.80;;;;;;;;;;5051542;28;20957;-51
2022/01/01 06:31:58;;;;;;;4.50;4.03;;;;;;;;;;5094204;28;20525;-50
2022/01/01 06:34:24;;;;;;;5.03;3.10;;;;;;;;;;5071970;28;20429;-50
2022/01/01 06:36:51;;;;;;;5.67;4.20;;;;;;;;;;5093764;28;20439;-50
2022/01/01 06:39:24;;;;;;;6.60;3.10;;;;;;;;;;5093331;28;20436;-49
2022/01/01 06:41:51;;;;;;;4.60;3.13;;;;;;;;;;5092884;28;20475;-50
2022/01/01 06:44:17;;;;;;;5.50;4.47;;;;;;;;;;5053939;28;20452;-49
2022/01/01 06:46:44;;;;;;;4.67;3.37;;;;;;;;;;5094604;28;20458;-50
2022/01/01 06:49:10;;;;;;;6.90;3.17;;;;;;;;;;5048110;28;21084;-49
2022/01/01 06:51:36;;;;;;;5.63;4.00;;;;;;;;;;5086464;28;20442;-48
2022/01/01 06:54:10;;;;;;;6.30;3.87;;;;;;;;;;5063760;28;20444;-51
2022/01/01 06:56:36;;;;;;;6.77;4.37;;;;;;;;;;5059992;28;20533;-49
2022/01/01 06:59:17;;;;;;;5.07;3.40;;;;;;;;;;5087529;28;21332;-51
2022/01/01 07:01:49;;;;;;;4.60;3.27;;;;;;;;;;5085406;28;20568;-49
2022/01/01 07:04:25;;;;;;;5.23;3.27;;;;;;;;;;5070098;28;20823;-52
2022/01/01 07:06:54;;;;;;;5.23;2.93;;;;;;;;;;5087720;28;20439;-49
2022/01/01 07:09:20;;;;;;;4.33;3.57;;;;;;;;;;5087671;28;20460;-52
2022/01/01 07:11:46;;;;;;;4.50;3.13;;;;;;;;;;5049424;28;20538;-50
2022/01/01 07:14:12;;;;;;;6.40;3.80;;;;;;;;;;5089468;28;20433;-50
2022/01/01 07:16:38;;;;;;;8.40;3.80;;;;;;;;;;5058197;28;20491;-54
2022/01/01 07:19:04;;;;;;;6.20;3.47;;;;;;;;;;5078293;28;20735;-49
2022/01/01 07:21:30;;;;;;;3.77;3.33;;;;;;;;;;5085645;28;20536;-50
2022/01/01 07:23:57;;;;;;;4.87;3.23;;;;;;;;;;5097893;28;20496;-52
2022/01/01 07:26:35;;;;;;;8.40;3.73;;;;;;;;;;5039911;28;20555;-51
2022/01/01 07:29:01;;;;;;;5.13;3.70;;;;;;;;;;5081435;28;20423;-50
2022/01/01 07:31:44;;;;;;;6.13;5.00;;;;;;;;;;5085466;28;20451;-51
2022/01/01 07:34:11;;;;;;;4.07;3.60;;;;;;;;;;5095774;28;20424;-50
2022/01/01 07:36:37;;;;;;;6.03;4.43;;;;;;;;;;5091543;28;20440;-51
2022/01/01 07:39:03;;;;;;;4.97;3.67;;;;;;;;;;5079282;28;20441;-51
2022/01/01 07:41:36;;;;;;;4.43;3.60;;;;;;;;;;5049602;28;20530;-51
2022/01/01 07:44:04;;;;;;;5.87;3.60;;;;;;;;;;5074713;28;20448;-51
2022/01/01 07:46:30;;;;;;;3.97;3.27;;;;;;;;;;5080794;28;20956;-51
2022/01/01 07:48:56;;;;;;;6.50;3.70;;;;;;;;;;5091282;28;20548;-51
2022/01/01 07:51:22;;;;;;;5.90;4.03;;;;;;;;;;5069943;28;20534;-50
2022/01/01 07:53:48;;;;;;;4.97;3.37;;;;;;;;;;5092676;28;20440;-50
2022/01/01 07:56:14;;;;;;;4.77;3.43;;;;;;;;;;5090877;28;20444;-51
2022/01/01 07:58:42;;;;;;;4.03;3.63;;;;;;;;;;5092635;28;20171;-51
2022/01/01 08:01:25;;;;;;;4.60;3.70;;;;;;;;;;5051259;28;20444;-51
2022/01/01 08:03:52;;;;;;;3.67;2.83;;;;;;;;;;5095925;28;20448;-51
2022/01/01 08:06:18;;;;;;;4.90;3.63;;;;;;;;;;5072268;28;20455;-49
2022/01/01 08:08:44;;;;;;;8.73;4.10;;;;;;;;;;5087886;28;20444;-50
2022/01/01 08:11:10;;;;;;;3.47;3.03;;;;;;;;;;5082571;28;20480;-50
2022/01/01 08:13:36;;;;;;;3.50;3.10;;;;;;;;;;5088660;28;20868;-49
2022/01/01 08:16:04;;;;;;;6.03;2.87;;;;;;;;;;5082473;28;20906;-50
2022/01/01 08:18:30;;;;;;;4.77;3.47;;;;;;;;;;5086354;28;20451;-49
2022/01/01 08:20:56;;;;;;;3.53;3.07;;;;;;;;;;5078710;28;20432;-50
2022/01/01 08:23:22;;;;;;;4.20;3.10;;;;;;;;;;5081323;28;20450;-51
2022/01/01 08:25:49;;;;;;;4.90;3.57;;;;;;;;;;5060547;28;20536;-50
2022/01/01 08:28:15;;;;;;;3.47;2.93;;;;;;;;;;5075046;28;20511;-50
2022/01/01 08:31:15;;;;;;;5.13;2.73;;;;;;;;;;5093692;28;20439;-52
2022/01/01 08:33:49;;;;;;;4.47;3.17;;;;;;;;;;5080890;28;20550;-49
2022/01/01 08:36:21;;;;;;;4.87;3.30;;;;;;;;;;5079376;28;20440;-50
2022/01/01 08:38:50;;;;;;;6.10;3.10;;;;;;;;;;5069494;28;20469;-50
2022/01/01 08:41:16;;;;;;;11.30;2.90;;;;;;;;;;5096136;28;20519;-50
2022/01/01 08:43:43;;;;;;;2.97;2.67;;;;;;;;;;5080979;28;20448;-49
2022/01/01 08:46:09;;;;;;;3.70;3.00;;;;;;;;;;5090266;28;20424;-49
2022/01/01 08:48:35;;;;;;;6.27;2.97;;;;;;;;;;5096102;28;20538;-50
2022/01/01 08:51:13;;;;;;;2.00;1.73;;;;;;;;;;5074966;28;20471;-49
2022/01/01 08:53:39;;;;;;;3.10;2.50;;;;;;;;;;5093498;28;21075;-49
2022/01/01 08:56:07;;;;;;;4.60;2.40;;;;;;;;;;5086030;28;20486;-49
2022/01/01 08:58:36;;;;;;;4.23;3.10;;;;;;;;;;5097331;28;20516;-50
2022/01/01 09:01:02;;;;;;;3.33;2.07;;;;;;;;;;5094574;28;20447;-50
2022/01/01 09:03:29;;;;;;;5.30;2.40;;;;;;;;;;5093408;28;20475;-51
2022/01/01 09:06:09;;;;;;;4.60;3.00;;;;;;;;;;5071564;28;20769;-50
2022/01/01 09:08:37;;;;;;;2.60;2.33;;;;;;;;;;5090130;28;20432;-50
2022/01/01 09:11:03;;;;;;;2.50;2.07;;;;;;;;;;5094785;28;20420;-51
2022/01/01 09:13:30;;;;;;;3.60;2.60;;;;;;;;;;5096415;28;20506;-51
2022/01/01 09:16:20;;;;;;;3.50;2.70;;;;;;;;;;5066426;28;20752;-50
2022/01/01 09:18:48;;;;;;;4.37;2.83;;;;;;;;;;5094651;28;20447;-51
2022/01/01 09:21:17;;;;;;;3.83;3.00;;;;;;;;;;5080438;28;21704;-51
2022/01/01 09:23:43;;;;;;;4.30;2.67;;;;;;;;;;5095656;28;20436;-51
2022/01/01 09:26:09;;;;;;;2.97;2.13;;;;;;;;;;5095528;28;20419;-51
2022/01/01 09:28:36;;;;;;;4.20;2.47;;;;;;;;;;5102740;28;20463;-51
2022/01/01 09:31:13;;;;;;;2.30;2.07;;;;;;;;;;5087404;28;20967;-51
2022/01/01 09:33:43;;;;;;;3.20;2.23;;;;;;;;;;5082124;28;20476;-52
2022/01/01 09:36:23;;;;;;;3.07;2.00;;;;;;;;;;5080838;28;20986;-52
2022/01/01 09:38:59;;;;;;;3.00;2.40;;;;;;;;;;5086837;28;20760;-50
2022/01/01 09:42:04;;;;;;;2.80;2.17;;;;;;;;;;5076574;28;20491;-50
2022/01/01 09:44:36;;;;;;;3.23;2.30;;;;;;;;;;5086265;28;20460;-49
2022/01/01 09:47:02;;;;;;;2.63;2.00;;;;;;;;;;5073990;28;20431;-51
2022/01/01 09:49:47;;;;;;;7.10;3.07;;;;;;;;;;5070612;28;20435;-50
2022/01/01 09:52:14;;;;;;;3.57;2.00;;;;;;;;;;5077088;28;20475;-49
2022/01/01 09:54:41;;;;;;;4.83;2.97;;;;;;;;;;5062934;28;20901;-50
2022/01/01 09:57:07;;;;;;;2.67;2.20;;;;;;;;;;5092877;28;20440;-51
2022/01/01 09:59:33;;;;;;;3.13;2.07;;;;;;;;;;5086673;28;20504;-50
2022/01/01 10:01:59;;;;;;;3.00;2.13;;;;;;;;;;5075661;28;20523;-53
2022/01/01 10:04:25;;;;;;;2.10;1.70;;;;;;;;;;5076202;28;21132;-50
2022/01/01 10:07:08;;;;;;;5.57;2.80;;;;;;;;;;5089074;28;20435;-49
2022/01/01 10:09:37;;;;;;;4.57;2.43;;;;;;;;;;5078600;28;20448;-49
2022/01/01 10:12:06;;;;;;;3.53;2.57;;;;;;;;;;5087195;28;20428;-49
2022/01/01 10:14:39;;;;;;;2.70;2.30;;;;;;;;;;5058416;28;20775;-50
2022/01/01 10:17:14;;;;;;;4.63;3.00;;;;;;;;;;5078475;28;20443;-49
2022/01/01 10:19:58;;;;;;;3.73;2.80;;;;;;;;;;5083651;28;20431;-51
2022/01/01 10:22:29;;;;;;;5.30;2.37;;;;;;;;;;5094971;28;20484;-50
2022/01/01 10:27:54;;;;;;;5.00;2.70;;;;;;;;;;5096001;28;20185;-49
2022/01/01 10:30:21;;;;;;;2.27;1.77;;;;;;;;;;5084301;28;20441;-50
2022/01/01 10:32:59;;;;;;;3.17;2.37;;;;;;;;;;5097973;28;20466;-49
2022/01/01 10:35:25;;;;;;;2.80;2.13;;;;;;;;;;5091652;28;20458;-49
2022/01/01 10:37:51;;;;;;;3.20;2.20;;;;;;;;;;5093523;28;20815;-50
2022/01/01 10:40:27;;;;;;;2.70;1.90;;;;;;;;;;5091509;28;20526;-49
2022/01/01 10:42:53;;;;;;;2.63;2.00;;;;;;;;;;5091709;28;20478;-49
2022/01/01 10:45:31;;;;;;;2.33;1.63;;;;;;;;;;5087360;28;20535;-51
2022/01/01 10:48:04;;;;;;;3.20;1.90;;;;;;;;;;5079672;28;20539;-49
2022/01/01 10:50:35;;;;;;;4.00;2.47;;;;;;;;;;5076151;28;20432;-49
2022/01/01 10:53:10;;;;;;;4.17;1.93;;;;;;;;;;5061475;28;20444;-49
2022/01/01 10:55:39;;;;;;;1.50;1.30;;;;;;;;;;5100028;28;20419;-49
2022/01/01 10:58:05;;;;;;;2.63;1.60;;;;;;;;;;5086425;28;20441;-49
2022/01/01 11:00:31;;;;;;;2.90;1.30;;;;;;;;;;5098019;28;20532;-47
2022/01/01 11:02:58;;;;;;;2.10;1.83;;;;;;;;;;5054071;28;22543;-49
2022/01/01 11:05:27;;;;;;;2.30;1.70;;;;;;;;;;5086480;28;21308;-50
2022/01/01 11:07:53;;;;;;;2.70;1.43;;;;;;;;;;5064841;28;20448;-49
2022/01/01 11:10:19;;;;;;;1.63;1.30;;;;;;;;;;5092041;28;20528;-49
2022/01/01 11:12:46;;;;;;;2.17;1.33;;;;;;;;;;5056816;28;20463;-51
2022/01/01 11:15:12;;;;;;;3.40;2.33;;;;;;;;;;5074564;28;20502;-49
2022/01/01 11:17:38;;;;;;;4.47;2.70;;;;;;;;;;5059531;28;21117;-49
2022/01/01 11:20:05;;;;;;;3.77;2.87;;;;;;;;;;5097668;28;20442;-50
2022/01/01 11:22:31;;;;;;;4.23;3.10;;;;;;;;;;5087806;28;20230;-49
2022/01/01 11:24:58;;;;;;;4.10;2.93;;;;;;;;;;5095162;28;20813;-49
2022/01/01 11:27:27;;;;;;;4.97;3.60;;;;;;;;;;5089890;28;20981;-49
2022/01/01 11:29:56;;;;;;;4.90;3.20;;;;;;;;;;5095384;28;20425;-49
2022/01/01 11:32:25;;;;;;;4.83;3.10;;;;;;;;;;5074988;28;20809;-49
2022/01/01 11:34:52;;;;;;;4.77;3.10;;;;;;;;;;5075125;28;20432;-49
2022/01/01 11:37:19;;;;;;;5.73;3.33;;;;;;;;;;5078294;28;21184;-49
2022/01/01 11:39:45;;;;;;;6.90;3.50;;;;;;;;;;5069975;28;20460;-49
2022/01/01 11:42:47;;;;;;;5.20;3.20;;;;;;;;;;5094876;28;20551;-50
2022/01/01 11:45:35;;;;;;;4.03;3.50;;;;;;;;;;5074835;28;20435;-49
2022/01/01 11:48:19;;;;;;;5.30;3.90;;;;;;;;;;5067252;28;20508;-48
2022/01/01 11:50:45;;;;;;;5.20;4.70;;;;;;;;;;5099119;28;20440;-49
2022/01/01 11:53:27;;;;;;;6.50;4.40;;;;;;;;;;5095046;28;20442;-49
2022/01/01 11:56:05;;;;;;;5.83;3.80;;;;;;;;;;5101787;28;20438;-49
2022/01/01 11:58:50;;;;;;;4.70;3.40;;;;;;;;;;5094410;28;20440;-50
2022/01/01 12:01:17;;;;;;;5.10;4.60;;;;;;;;;;5100116;28;20443;-49
2022/01/01 12:03:50;;;;;;;5.27;4.57;;;;;;;;;;5095113;28;20448;-49
2022/01/01 12:06:16;;;;;;;6.43;4.50;;;;;;;;;;5068118;28;20436;-49
2022/01/01 12:08:44;;;;;;;6.00;4.60;;;;;;;;;;5067269;28;20451;-50
2022/01/01 12:11:10;;;;;;;5.70;4.43;;;;;;;;;;5062134;28;20877;-49
2022/01/01 12:13:38;;;;;;;6.27;5.50;;;;;;;;;;5095100;28;20502;-51
2022/01/01 12:19:09;;;;;;;5.80;4.43;;;;;;;;;;5022455;28;20482;-50
2022/01/01 12:21:39;;;;;;;5.53;5.03;;;;;;;;;;5064487;28;23560;-48
2022/01/01 12:24:08;;;;;;;5.87;4.57;;;;;;;;;;5077213;28;20970;-50
2022/01/01 12:26:34;;;;;;;5.47;3.50;;;;;;;;;;5094269;28;20433;-49
2022/01/01 12:29:04;;;;;;;5.50;4.50;;;;;;;;;;5093631;28;20424;-51
2022/01/01 12:32:07;;;;;;;4.57;4.07;;;;;;;;;;5085815;28;21217;-50
2022/01/01 12:34:59;;;;;;;6.03;4.67;;;;;;;;;;5089032;28;20438;-50
2022/01/01 12:38:04;;;;;;;5.70;3.33;;;;;;;;;;5074507;28;20689;-50
2022/01/01 12:40:36;;;;;;;6.43;5.30;;;;;;;;;;5091607;28;23103;-50
2022/01/01 12:43:15;;;;;;;6.30;4.93;;;;;;;;;;5083537;28;20505;-50
2022/01/01 12:45:42;;;;;;;4.90;3.70;;;;;;;;;;5090128;28;20994;-51
2022/01/01 12:48:27;;;;;;;7.93;4.90;;;;;;;;;;5083304;28;20448;-51
2022/01/01 12:51:09;;;;;;;6.47;5.40;;;;;;;;;;5096431;28;20420;-51
2022/01/01 12:53:38;;;;;;;7.27;5.10;;;;;;;;;;5077259;28;20448;-51
2022/01/01 12:56:14;;;;;;;6.50;4.90;;;;;;;;;;5098515;28;20936;-50
2022/01/01 12:58:44;;;;;;;7.50;5.37;;;;;;;;;;5082165;28;20945;-51
2022/01/01 13:01:11;;;;;;;7.87;5.73;;;;;;;;;;5094672;28;20965;-50
2022/01/01 13:03:39;;;;;;;7.30;4.93;;;;;;;;;;5045165;28;20864;-50
2022/01/01 13:06:05;;;;;;;6.73;4.93;;;;;;;;;;5094995;28;21321;-51
2022/01/01 13:08:31;;;;;;;5.77;5.07;;;;;;;;;;5075175;28;20443;-50
2022/01/01 13:10:59;;;;;;;6.83;4.70;;;;;;;;;;5076556;28;20437;-50
2022/01/01 13:13:28;;;;;;;6.10;4.87;;;;;;;;;;5083155;28;20433;-51
2022/01/01 13:15:57;;;;;;;7.27;5.50;;;;;;;;;;5092335;28;20654;-50
2022/01/01 13:18:44;;;;;;;6.77;5.00;;;;;;;;;;5063919;28;20452;-51
2022/01/01 13:21:12;;;;;;;7.17;4.80;;;;;;;;;;5087414;28;20456;-49
2022/01/01 13:23:50;;;;;;;7.70;4.97;;;;;;;;;;5086275;28;20437;-50
2022/01/01 13:26:17;;;;;;;7.60;5.23;;;;;;;;;;5077963;28;20428;-50
2022/01/01 13:29:07;;;;;;;6.90;5.50;;;;;;;;;;5095259;28;20435;-51
2022/01/01 13:32:10;;;;;;;6.50;5.23;;;;;;;;;;5087714;28;20444;-51
2022/01/01 13:34:48;;;;;;;8.27;5.33;;;;;;;;;;5070712;28;20429;-51
2022/01/01 13:37:24;;;;;;;6.77;5.00;;;;;;;;;;5094889;28;20437;-51
2022/01/01 13:40:03;;;;;;;5.80;4.37;;;;;;;;;;5060688;28;20575;-51
2022/01/01 13:42:31;;;;;;;7.33;4.47;;;;;;;;;;5072693;28;21035;-49
2022/01/01 13:45:04;;;;;;;5.20;4.70;;;;;;;;;;5063754;28;20432;-50
2022/01/01 13:47:34;;;;;;;7.40;5.03;;;;;;;;;;5060601;28;20532;-51
2022/01/01 13:50:00;;;;;;;10.40;6.17;;;;;;;;;;5074644;28;20432;-49
2022/01/01 13:52:29;;;;;;;8.30;5.43;;;;;;;;;;5080892;28;20447;-53
2022/01/01 13:54:58;;;;;;;7.40;5.07;;;;;;;;;;5031818;28;23257;-50
2022/01/01 13:57:24;;;;;;;6.87;6.03;;;;;;;;;;5061276;28;20448;-51
2022/01/01 13:59:53;;;;;;;8.03;6.00;;;;;;;;;;5072234;28;21694;-49
2022/01/01 14:02:21;;;;;;;10.77;6.47;;;;;;;;;;5068010;28;20846;-49
2022/01/01 14:04:47;;;;;;;7.10;5.20;;;;;;;;;;5090979;28;20486;-51
2022/01/01 14:07:21;;;;;;;6.37;4.40;;;;;;;;;;5083542;28;21343;-51
2022/01/01 14:10:07;;;;;;;6.40;5.73;;;;;;;;;;5081503;28;20534;-50
2022/01/01 14:12:35;;;;;;;6.63;4.90;;;;;;;;;;5055314;28;20629;-51
2022/01/01 14:15:03;;;;;;;7.07;5.43;;;;;;;;;;5091305;28;20435;-49
2022/01/01 14:17:47;;;;;;;5.10;4.60;;;;;;;;;;5080524;28;20450;-51
2022/01/01 14:20:24;;;;;;;7.17;5.50;;;;;;;;;;5090629;28;20776;-51
2022/01/01 14:22:50;;;;;;;8.93;5.30;;;;;;;;;;5090987;28;20518;-50
2022/01/01 14:25:16;;;;;;;12.80;7.17;;;;;;;;;;5097112;28;20879;-49
2022/01/01 14:27:52;;;;;;;8.57;6.07;;;;;;;;;;5069326;28;20432;-52
2022/01/01 14:30:19;;;;;;;15.37;6.43;;;;;;;;;;5082789;28;20799;-51
2022/01/01 14:32:46;;;;;;;8.87;5.90;;;;;;;;;;5099139;28;20459;-50
2022/01/01 14:35:21;;;;;;;9.53;5.00;;;;;;;;;;5078041;28;20956;-51
2022/01/01 14:37:49;;;;;;;8.10;5.30;;;;;;;;;;5092823;28;20529;-52
2022/01/01 14:40:15;;;;;;;6.67;5.23;;;;;;;;;;5081495;28;20443;-49
2022/01/01 14:42:41;;;;;;;8.43;5.20;;;;;;;;;;5082066;28;20532;-49
2022/01/01 14:45:07;;;;;;;7.07;5.43;;;;;;;;;;5072629;28;20455;-48
2022/01/01 14:47:38;;;;;;;9.73;6.20;;;;;;;;;;5074764;28;20178;-50
2022/01/01 14:50:06;;;;;;;9.60;6.30;;;;;;;;;;5067131;28;20490;-51
2022/01/01 14:52:52;;;;;;;8.40;5.97;;;;;;;;;;5068228;28;20439;-51
2022/01/01 14:55:19;;;;;;;8.63;6.63;;;;;;;;;;5073637;28;20435;-51
2022/01/01 14:57:46;;;;;;;12.93;6.20;;;;;;;;;;5099431;28;20491;-51
2022/01/01 15:00:14;;;;;;;10.37;7.00;;;;;;;;;;5049522;28;20439;-51
2022/01/01 15:02:41;;;;;;;8.53;5.77;;;;;;;;;;5070625;28;20483;-56
2022/01/01 15:05:07;;;;;;;10.57;5.87;;;;;;;;;;5062363;28;20432;-51
2022/01/01 15:07:34;;;;;;;8.30;4.90;;;;;;;;;;5092665;28;20480;-51